createdAt,value
2022-10-31T00:00:18.968Z,9.53
2022-10-31T00:05:22.303Z,6.43
2022-10-31T00:10:25.543Z,5.43
2022-10-31T00:15:30.110Z,12.80
2022-10-31T00:20:33.752Z,9.90
2022-10-31T00:25:37.923Z,8.47
2022-10-31T00:30:42.521Z,11.67
2022-10-31T00:35:51.114Z,9.37
2022-10-31T00:40:54.740Z,10.87
2022-10-31T00:45:59.415Z,7.90
2022-10-31T00:51:02.628Z,4.50
2022-10-31T00:56:06.389Z,6.83
2022-10-31T01:01:11.036Z,11.30
2022-10-31T01:06:14.948Z,5.03
2022-10-31T01:11:19.253Z,6.27
2022-10-31T01:16:24.905Z,7.43
2022-10-31T01:21:28.894Z,7.60
2022-10-31T01:26:35.500Z,5.97
2022-10-31T01:31:40.932Z,6.97
2022-10-31T01:36:45.879Z,6.03
2022-10-31T01:41:50.561Z,5.83
2022-10-31T01:46:57.435Z,9.83
2022-10-31T01:52:02.118Z,9.10
2022-10-31T01:57:07.072Z,7.70
2022-10-31T02:02:12.795Z,8.47
2022-10-31T02:07:17.196Z,6.20
2022-10-31T02:12:20.855Z,7.73
2022-10-31T02:17:25.474Z,5.83
2022-10-31T02:22:32.315Z,5.50
2022-10-31T02:28:05.798Z,9.17
2022-10-31T02:33:17.674Z,8.60
2022-10-31T02:38:27.688Z,8.40
2022-10-31T02:43:35.508Z,4.03
2022-10-31T02:48:41.365Z,5.70
2022-10-31T02:53:44.596Z,6.13
2022-10-31T02:58:50.260Z,7.07
2022-10-31T03:04:00.891Z,6.07
2022-10-31T03:09:12.577Z,9.83
2022-10-31T03:14:21.500Z,5.93
2022-10-31T03:19:32.397Z,7.87
2022-10-31T03:24:37.875Z,8.57
2022-10-31T03:29:42.456Z,5.40
2022-10-31T03:34:47.592Z,5.50
2022-10-31T03:39:52.551Z,5.23
2022-10-31T03:45:00.154Z,9.13
2022-10-31T03:50:06.201Z,5.93
2022-10-31T03:55:11.581Z,7.73
2022-10-31T04:00:16.809Z,6.20
2022-10-31T04:05:24.944Z,7.20
2022-10-31T04:10:33.030Z,4.77
2022-10-31T04:15:37.616Z,6.27
2022-10-31T04:20:43.628Z,7.47
2022-10-31T04:25:48.538Z,5.10
2022-10-31T04:30:53.943Z,7.60
2022-10-31T04:35:59.231Z,6.70
2022-10-31T04:41:02.427Z,4.77
2022-10-31T04:46:29.177Z,6.33
2022-10-31T04:51:35.643Z,8.00
2022-10-31T04:56:38.953Z,7.73
2022-10-31T05:01:48.555Z,8.63
2022-10-31T05:06:56.659Z,8.43
2022-10-31T05:11:59.843Z,6.43
2022-10-31T05:17:21.492Z,10.33
2022-10-31T05:23:04.135Z,6.97
2022-10-31T05:28:07.473Z,6.27
2022-10-31T05:33:11.871Z,6.17
2022-10-31T05:38:35.174Z,4.60
2022-10-31T05:43:58.595Z,6.37
2022-10-31T05:49:08.003Z,7.03
2022-10-31T05:54:31.271Z,8.43
2022-10-31T05:59:35.055Z,5.80
2022-10-31T06:04:38.914Z,4.77
2022-10-31T06:09:43.596Z,6.80
2022-10-31T06:14:47.526Z,4.53
2022-10-31T06:25:04.077Z,8.07
2022-10-31T06:30:12.067Z,8.87
2022-10-31T06:35:15.468Z,12.00
2022-10-31T06:40:20.787Z,8.03
2022-10-31T06:45:46.421Z,12.43
2022-10-31T06:50:49.642Z,6.13
2022-10-31T06:55:54.319Z,6.80
2022-10-31T07:01:00.966Z,12.20
2022-10-31T07:06:04.347Z,5.77
2022-10-31T07:11:10.479Z,5.30
2022-10-31T07:16:15.968Z,16.53
2022-10-31T07:21:20.326Z,5.40
2022-10-31T07:26:24.918Z,7.03
2022-10-31T07:31:28.817Z,6.87
2022-10-31T07:36:36.858Z,7.03
2022-10-31T07:41:42.866Z,10.77
2022-10-31T07:46:46.470Z,6.47
2022-10-31T07:52:08.283Z,7.93
2022-10-31T07:57:34.538Z,5.90
2022-10-31T08:02:38.234Z,6.90
2022-10-31T08:08:02.108Z,9.40
2022-10-31T08:13:08.762Z,8.70
2022-10-31T08:18:15.011Z,6.77
2022-10-31T08:23:19.444Z,6.93
2022-10-31T08:28:24.848Z,15.23
2022-10-31T08:33:30.269Z,8.07
2022-10-31T08:39:01.441Z,7.00
2022-10-31T08:44:07.287Z,10.17
2022-10-31T08:49:10.530Z,8.37
2022-10-31T08:54:15.349Z,11.27
2022-10-31T08:59:34.667Z,8.27
2022-10-31T09:04:58.099Z,8.97
2022-10-31T09:10:01.404Z,10.00
2022-10-31T09:15:11.254Z,7.90
2022-10-31T09:20:24.845Z,8.53
2022-10-31T09:25:29.261Z,8.13
2022-10-31T09:30:54.910Z,9.87
2022-10-31T09:36:18.874Z,12.23
2022-10-31T09:41:26.498Z,10.67
2022-10-31T09:46:36.972Z,14.07
2022-10-31T09:51:42.849Z,8.17
2022-10-31T09:56:52.059Z,11.73
2022-10-31T10:01:58.554Z,10.47
2022-10-31T10:07:04.689Z,8.17
2022-10-31T10:12:40.809Z,10.47
2022-10-31T10:17:49.207Z,10.70
2022-10-31T10:22:54.951Z,12.52
2022-10-31T10:28:03.534Z,12.37
2022-10-31T10:33:11.669Z,15.95
2022-10-31T10:38:18.478Z,10.53
2022-10-31T10:43:24.134Z,8.15
2022-10-31T10:48:34.189Z,13.85
2022-10-31T10:54:03.152Z,13.70
2022-10-31T10:59:12.035Z,8.35
2022-10-31T11:04:24.164Z,12.65
2022-10-31T11:09:27.537Z,7.72
2022-10-31T11:14:30.823Z,10.82
2022-10-31T11:19:35.387Z,10.10
2022-10-31T11:24:40.211Z,9.13
2022-10-31T11:29:43.433Z,12.65
2022-10-31T11:34:50.320Z,12.18
2022-10-31T11:39:55.344Z,15.43
2022-10-31T11:44:58.918Z,14.05
2022-10-31T11:50:04.367Z,18.60
2022-10-31T11:55:16.770Z,11.60
2022-10-31T12:00:23.763Z,16.83
2022-10-31T12:05:30.180Z,16.75
2022-10-31T12:10:37.381Z,16.27
2022-10-31T12:15:42.666Z,10.10
2022-10-31T12:20:55.160Z,16.75
2022-10-31T12:26:03.566Z,13.40
2022-10-31T12:31:15.816Z,9.30
2022-10-31T12:36:29.896Z,12.18
2022-10-31T12:41:38.660Z,13.45
2022-10-31T12:46:57.991Z,12.50
2022-10-31T12:52:08.776Z,14.68
2022-10-31T12:57:25.442Z,11.70
2022-10-31T13:02:30.547Z,10.75
2022-10-31T13:07:38.243Z,13.10
2022-10-31T13:12:41.849Z,15.32
2022-10-31T13:17:47.619Z,12.20
2022-10-31T13:22:53.887Z,14.68
2022-10-31T13:27:59.285Z,15.25
2022-10-31T13:33:04.373Z,11.70
2022-10-31T13:38:13.539Z,18.50
2022-10-31T13:43:21.469Z,19.37
2022-10-31T13:48:39.911Z,14.40
2022-10-31T13:53:47.025Z,18.00
2022-10-31T13:59:04.078Z,17.27
2022-10-31T14:04:14.827Z,17.53
2022-10-31T14:09:26.729Z,19.07
2022-10-31T14:14:33.308Z,15.00
2022-10-31T14:19:36.493Z,19.13
2022-10-31T14:24:41.044Z,18.80
2022-10-31T14:29:47.975Z,17.50
2022-10-31T14:34:55.232Z,16.60
2022-10-31T14:40:09.830Z,20.67
2022-10-31T14:45:19.926Z,23.90
2022-10-31T14:50:25.577Z,21.83
2022-10-31T14:55:30.250Z,24.73
2022-10-31T15:00:34.355Z,22.03
2022-10-31T15:05:43.194Z,25.90
2022-10-31T15:10:48.069Z,22.23
2022-10-31T15:15:52.522Z,18.27
2022-10-31T15:20:56.882Z,18.40
2022-10-31T15:26:02.083Z,19.60
2022-10-31T15:31:05.482Z,19.43
2022-10-31T15:36:08.918Z,23.07
2022-10-31T15:41:23.347Z,22.73
2022-10-31T15:46:28.247Z,22.13
2022-10-31T15:51:32.822Z,22.83
2022-10-31T15:56:37.311Z,26.97
2022-10-31T16:01:41.027Z,22.93
2022-10-31T16:06:44.324Z,23.57
2022-10-31T16:11:49.044Z,37.70
2022-10-31T16:16:54.295Z,21.30
2022-10-31T16:22:03.576Z,23.40
2022-10-31T16:27:09.704Z,18.23
2022-10-31T16:32:29.278Z,22.37
2022-10-31T16:37:32.409Z,24.77
2022-10-31T16:42:37.139Z,25.60
2022-10-31T16:47:40.303Z,27.93
2022-10-31T16:53:08.451Z,21.30
2022-10-31T16:58:14.019Z,25.30
2022-10-31T17:03:17.217Z,27.13
2022-10-31T17:08:20.336Z,28.10
2022-10-31T17:13:26.596Z,23.23
2022-10-31T17:18:30.945Z,21.13
2022-10-31T17:23:34.601Z,26.13
2022-10-31T17:28:39.196Z,26.90
2022-10-31T17:33:43.239Z,23.90
2022-10-31T17:38:46.363Z,22.57
2022-10-31T17:43:50.896Z,26.70
2022-10-31T17:48:54.100Z,24.60
2022-10-31T17:53:57.302Z,26.63
2022-10-31T17:59:02.074Z,26.53
2022-10-31T18:04:05.437Z,36.07
2022-10-31T18:09:08.808Z,30.83
2022-10-31T18:14:13.433Z,29.87
2022-10-31T18:19:17.143Z,23.97
2022-10-31T18:24:20.367Z,30.03
2022-10-31T18:29:25.088Z,24.03
2022-10-31T18:34:28.332Z,26.63
2022-10-31T18:39:31.560Z,23.67
2022-10-31T18:44:36.137Z,33.03
2022-10-31T18:49:39.344Z,24.07
2022-10-31T18:54:42.730Z,27.57
2022-10-31T18:59:47.303Z,22.97
2022-10-31T19:04:50.415Z,19.67
2022-10-31T19:09:53.815Z,24.80
2022-10-31T19:14:58.390Z,22.13
2022-10-31T19:20:01.597Z,23.83
2022-10-31T19:25:09.238Z,23.97
2022-10-31T19:30:15.912Z,21.20
2022-10-31T19:35:19.194Z,23.67
2022-10-31T19:40:22.621Z,20.60
2022-10-31T19:45:27.292Z,31.63
2022-10-31T19:50:30.884Z,22.50
2022-10-31T19:55:34.086Z,25.90
2022-10-31T20:00:40.472Z,24.70
2022-10-31T20:05:44.038Z,22.20
2022-10-31T20:10:54.551Z,25.30
2022-10-31T20:16:01.102Z,23.60
2022-10-31T20:21:05.075Z,25.23
2022-10-31T20:26:10.317Z,23.23
2022-10-31T20:31:16.060Z,20.53
2022-10-31T20:36:21.044Z,20.93
2022-10-31T20:41:24.262Z,21.43
2022-10-31T20:46:29.278Z,18.73
2022-10-31T20:51:32.487Z,21.53
2022-10-31T20:56:35.864Z,20.10
2022-10-31T21:01:40.538Z,29.77
2022-10-31T21:06:49.096Z,24.43
2022-10-31T21:11:52.825Z,23.23
2022-10-31T21:16:57.406Z,18.53
2022-10-31T21:22:00.619Z,14.33
2022-10-31T21:27:08.513Z,18.47
2022-10-31T21:32:16.202Z,19.90
2022-10-31T21:37:20.107Z,19.77
2022-10-31T21:42:23.917Z,15.33
2022-10-31T21:47:28.492Z,14.70
2022-10-31T21:52:31.680Z,14.83
2022-10-31T21:57:35.032Z,91.93
2022-10-31T22:02:39.710Z,50.37
2022-10-31T22:07:42.968Z,30.40
2022-10-31T22:12:45.991Z,30.33
2022-10-31T22:17:50.486Z,23.93
2022-10-31T22:22:53.798Z,28.27
2022-10-31T22:27:57.024Z,22.60
2022-10-31T22:33:01.953Z,22.23
2022-10-31T22:38:05.536Z,20.20
2022-10-31T22:43:08.993Z,19.37
2022-10-31T22:48:13.802Z,12.17
2022-10-31T22:53:16.998Z,18.07
2022-10-31T22:58:20.216Z,13.93
2022-10-31T23:03:25.061Z,6.10
2022-10-31T23:08:28.778Z,5.53
2022-10-31T23:13:49.379Z,6.73
2022-10-31T23:18:54.004Z,11.60
2022-10-31T23:23:57.880Z,15.33
2022-10-31T23:29:01.167Z,15.63
2022-10-31T23:34:05.772Z,12.47
2022-10-31T23:39:08.979Z,12.40
2022-10-31T23:44:12.207Z,11.53
2022-10-31T23:49:16.783Z,11.17
2022-10-31T23:54:19.989Z,12.00
2022-10-31T23:59:23.330Z,14.23
